sensor_id;sensor_type;location;lat;lon;timestamp;pressure;altitude;pressure_sealevel;temperature;humidity
58239;BME280;44037;55.638;37.356;2023-03-14T00:00:16;98824.63;;;-4.37;100.00
58239;BME280;44037;55.638;37.356;2023-03-14T00:02:43;98810.41;;;-4.35;100.00
58239;BME280;44037;55.638;37.356;2023-03-14T00:05:11;98807.16;;;-4.33;100.00
58239;BME280;44037;55.638;37.356;2023-03-14T00:07:39;98798.00;;;-4.30;100.00
58239;BME280;44037;55.638;37.356;2023-03-14T00:10:09;98793.81;;;-4.30;100.00
58239;BME280;44037;55.638;37.356;2023-03-14T00:12:36;98783.97;;;-4.25;100.00
58239;BME280;44037;55.638;37.356;2023-03-14T00:15:04;98770.75;;;-4.20;100.00
58239;BME280;44037;55.638;37.356;2023-03-14T00:17:33;98765.00;;;-4.17;100.00
58239;BME280;44037;55.638;37.356;2023-03-14T00:20:00;98766.91;;;-4.13;100.00
58239;BME280;44037;55.638;37.356;2023-03-14T00:22:33;98765.72;;;-4.03;100.00
58239;BME280;44037;55.638;37.356;2023-03-14T00:25:01;98757.59;;;-3.97;100.00
58239;BME280;44037;55.638;37.356;2023-03-14T00:27:30;98757.84;;;-3.93;100.00
58239;BME280;44037;55.638;37.356;2023-03-14T00:29:57;98753.88;;;-3.88;100.00
58239;BME280;44037;55.638;37.356;2023-03-14T00:32:25;98750.88;;;-3.80;100.00
58239;BME280;44037;55.638;37.356;2023-03-14T00:34:52;98740.09;;;-3.76;100.00
58239;BME280;44037;55.638;37.356;2023-03-14T00:37:19;98727.78;;;-3.70;99.84
58239;BME280;44037;55.638;37.356;2023-03-14T00:39:46;98732.28;;;-3.64;100.00
58239;BME280;44037;55.638;37.356;2023-03-14T00:42:13;98726.66;;;-3.59;99.56
58239;BME280;44037;55.638;37.356;2023-03-14T00:44:41;98729.41;;;-3.54;99.08
58239;BME280;44037;55.638;37.356;2023-03-14T00:47:09;98732.84;;;-3.53;98.28
58239;BME280;44037;55.638;37.356;2023-03-14T00:49:36;98733.75;;;-3.51;98.91
58239;BME280;44037;55.638;37.356;2023-03-14T00:52:03;98734.88;;;-3.46;99.28
58239;BME280;44037;55.638;37.356;2023-03-14T00:54:30;98734.25;;;-3.42;99.37
58239;BME280;44037;55.638;37.356;2023-03-14T00:56:57;98721.97;;;-3.34;99.33
58239;BME280;44037;55.638;37.356;2023-03-14T00:59:24;98707.78;;;-3.31;99.38
58239;BME280;44037;55.638;37.356;2023-03-14T01:01:52;98719.00;;;-3.26;99.35
58239;BME280;44037;55.638;37.356;2023-03-14T01:04:20;98720.09;;;-3.20;100.00
58239;BME280;44037;55.638;37.356;2023-03-14T01:06:47;98718.66;;;-3.15;100.00
58239;BME280;44037;55.638;37.356;2023-03-14T01:09:14;98708.59;;;-3.14;99.78
58239;BME280;44037;55.638;37.356;2023-03-14T01:11:43;98710.56;;;-3.08;100.00
58239;BME280;44037;55.638;37.356;2023-03-14T01:14:12;98709.03;;;-3.04;100.00
58239;BME280;44037;55.638;37.356;2023-03-14T01:16:39;98714.19;;;-3.03;99.95
58239;BME280;44037;55.638;37.356;2023-03-14T01:19:09;98704.06;;;-3.03;100.00
58239;BME280;44037;55.638;37.356;2023-03-14T01:21:36;98699.06;;;-3.01;100.00
58239;BME280;44037;55.638;37.356;2023-03-14T01:24:05;98679.78;;;-2.98;100.00
58239;BME280;44037;55.638;37.356;2023-03-14T01:26:34;98657.13;;;-2.95;100.00
58239;BME280;44037;55.638;37.356;2023-03-14T01:29:01;98655.53;;;-2.92;100.00
58239;BME280;44037;55.638;37.356;2023-03-14T01:31:29;98654.66;;;-2.93;100.00
58239;BME280;44037;55.638;37.356;2023-03-14T01:33:56;98647.97;;;-2.91;100.00
58239;BME280;44037;55.638;37.356;2023-03-14T01:36:24;98659.00;;;-2.90;100.00
58239;BME280;44037;55.638;37.356;2023-03-14T01:38:51;98653.84;;;-2.92;100.00
58239;BME280;44037;55.638;37.356;2023-03-14T01:41:20;98647.13;;;-2.91;100.00
58239;BME280;44037;55.638;37.356;2023-03-14T01:43:48;98639.59;;;-2.90;100.00
58239;BME280;44037;55.638;37.356;2023-03-14T01:46:35;98623.63;;;-2.87;100.00
58239;BME280;44037;55.638;37.356;2023-03-14T01:49:07;98614.44;;;-2.85;100.00
58239;BME280;44037;55.638;37.356;2023-03-14T01:51:42;98624.66;;;-2.84;100.00
58239;BME280;44037;55.638;37.356;2023-03-14T01:54:16;98617.13;;;-2.82;100.00
58239;BME280;44037;55.638;37.356;2023-03-14T01:56:49;98613.94;;;-2.78;100.00
58239;BME280;44037;55.638;37.356;2023-03-14T01:59:17;98603.91;;;-2.75;100.00
58239;BME280;44037;55.638;37.356;2023-03-14T02:01:46;98585.66;;;-2.68;100.00
58239;BME280;44037;55.638;37.356;2023-03-14T02:04:15;98599.34;;;-2.64;100.00
58239;BME280;44037;55.638;37.356;2023-03-14T02:06:54;98595.22;;;-2.62;100.00
58239;BME280;44037;55.638;37.356;2023-03-14T02:09:23;98577.59;;;-2.59;100.00
58239;BME280;44037;55.638;37.356;2023-03-14T02:11:50;98581.97;;;-2.55;100.00
58239;BME280;44037;55.638;37.356;2023-03-14T02:14:25;98575.47;;;-2.50;100.00
58239;BME280;44037;55.638;37.356;2023-03-14T02:16:54;98560.50;;;-2.43;100.00
58239;BME280;44037;55.638;37.356;2023-03-14T02:19:30;98562.38;;;-2.39;100.00
58239;BME280;44037;55.638;37.356;2023-03-14T02:22:07;98569.19;;;-2.38;100.00
58239;BME280;44037;55.638;37.356;2023-03-14T02:24:42;98555.69;;;-2.37;100.00
58239;BME280;44037;55.638;37.356;2023-03-14T02:27:16;98534.66;;;-2.35;100.00
58239;BME280;44037;55.638;37.356;2023-03-14T02:29:51;98525.69;;;-2.26;100.00
58239;BME280;44037;55.638;37.356;2023-03-14T02:32:20;98534.13;;;-2.27;100.00
58239;BME280;44037;55.638;37.356;2023-03-14T02:34:51;98517.22;;;-2.27;100.00
58239;BME280;44037;55.638;37.356;2023-03-14T02:37:21;98508.81;;;-2.26;100.00
58239;BME280;44037;55.638;37.356;2023-03-14T02:39:50;98516.47;;;-2.24;100.00
58239;BME280;44037;55.638;37.356;2023-03-14T02:42:18;98519.81;;;-2.25;100.00
58239;BME280;44037;55.638;37.356;2023-03-14T02:44:51;98503.72;;;-2.26;100.00
58239;BME280;44037;55.638;37.356;2023-03-14T02:47:21;98509.03;;;-2.20;100.00
58239;BME280;44037;55.638;37.356;2023-03-14T02:49:50;98517.06;;;-2.10;100.00
58239;BME280;44037;55.638;37.356;2023-03-14T02:52:19;98493.47;;;-2.08;100.00
58239;BME280;44037;55.638;37.356;2023-03-14T02:54:46;98504.69;;;-2.03;100.00
58239;BME280;44037;55.638;37.356;2023-03-14T02:57:13;98518.50;;;-1.96;100.00
58239;BME280;44037;55.638;37.356;2023-03-14T02:59:41;98506.03;;;-1.90;100.00
58239;BME280;44037;55.638;37.356;2023-03-14T03:02:08;98511.31;;;-1.85;100.00
58239;BME280;44037;55.638;37.356;2023-03-14T03:04:35;98519.81;;;-1.84;100.00
58239;BME280;44037;55.638;37.356;2023-03-14T03:07:02;98515.75;;;-1.79;100.00
58239;BME280;44037;55.638;37.356;2023-03-14T03:09:29;98520.22;;;-1.74;100.00
58239;BME280;44037;55.638;37.356;2023-03-14T03:11:56;98478.09;;;-1.68;100.00
58239;BME280;44037;55.638;37.356;2023-03-14T03:14:23;98493.56;;;-1.62;100.00
58239;BME280;44037;55.638;37.356;2023-03-14T03:16:51;98486.97;;;-1.59;100.00
58239;BME280;44037;55.638;37.356;2023-03-14T03:19:18;98491.31;;;-1.55;100.00
58239;BME280;44037;55.638;37.356;2023-03-14T03:21:46;98480.44;;;-1.52;100.00
58239;BME280;44037;55.638;37.356;2023-03-14T03:24:14;98471.97;;;-1.51;100.00
58239;BME280;44037;55.638;37.356;2023-03-14T03:26:41;98467.03;;;-1.48;100.00
58239;BME280;44037;55.638;37.356;2023-03-14T03:29:08;98450.28;;;-1.43;100.00
58239;BME280;44037;55.638;37.356;2023-03-14T03:31:36;98437.88;;;-1.35;100.00
58239;BME280;44037;55.638;37.356;2023-03-14T03:34:05;98443.81;;;-1.34;100.00
58239;BME280;44037;55.638;37.356;2023-03-14T03:36:32;98448.91;;;-1.34;100.00
58239;BME280;44037;55.638;37.356;2023-03-14T03:39:00;98429.44;;;-1.34;100.00
58239;BME280;44037;55.638;37.356;2023-03-14T03:41:27;98432.97;;;-1.30;100.00
58239;BME280;44037;55.638;37.356;2023-03-14T03:43:54;98427.13;;;-1.28;100.00
58239;BME280;44037;55.638;37.356;2023-03-14T03:46:21;98422.19;;;-1.23;100.00
58239;BME280;44037;55.638;37.356;2023-03-14T03:48:48;98418.97;;;-1.19;100.00
58239;BME280;44037;55.638;37.356;2023-03-14T03:51:16;98415.63;;;-1.18;100.00
58239;BME280;44037;55.638;37.356;2023-03-14T03:53:43;98427.56;;;-1.15;100.00
58239;BME280;44037;55.638;37.356;2023-03-14T03:56:10;98407.34;;;-1.12;100.00
58239;BME280;44037;55.638;37.356;2023-03-14T03:58:37;98420.34;;;-1.04;100.00
58239;BME280;44037;55.638;37.356;2023-03-14T04:01:05;98414.53;;;-1.00;100.00
58239;BME280;44037;55.638;37.356;2023-03-14T04:03:33;98423.88;;;-0.99;100.00
58239;BME280;44037;55.638;37.356;2023-03-14T04:06:01;98408.72;;;-0.98;100.00
58239;BME280;44037;55.638;37.356;2023-03-14T04:08:30;98410.53;;;-0.94;100.00
58239;BME280;44037;55.638;37.356;2023-03-14T04:10:58;98396.25;;;-0.90;100.00
58239;BME280;44037;55.638;37.356;2023-03-14T04:13:26;98404.22;;;-0.81;100.00
58239;BME280;44037;55.638;37.356;2023-03-14T04:15:54;98406.88;;;-0.78;100.00
58239;BME280;44037;55.638;37.356;2023-03-14T04:18:22;98396.84;;;-0.73;100.00
58239;BME280;44037;55.638;37.356;2023-03-14T04:20:51;98406.41;;;-0.66;100.00
58239;BME280;44037;55.638;37.356;2023-03-14T04:23:18;98403.94;;;-0.64;100.00
58239;BME280;44037;55.638;37.356;2023-03-14T04:25:47;98377.72;;;-0.62;100.00
58239;BME280;44037;55.638;37.356;2023-03-14T04:28:14;98390.59;;;-0.57;100.00
58239;BME280;44037;55.638;37.356;2023-03-14T04:30:41;98389.13;;;-0.50;100.00
58239;BME280;44037;55.638;37.356;2023-03-14T04:33:08;98383.25;;;-0.48;100.00
58239;BME280;44037;55.638;37.356;2023-03-14T04:35:35;98381.63;;;-0.45;100.00
58239;BME280;44037;55.638;37.356;2023-03-14T04:38:02;98382.53;;;-0.43;100.00
58239;BME280;44037;55.638;37.356;2023-03-14T04:40:29;98369.94;;;-0.40;100.00
58239;BME280;44037;55.638;37.356;2023-03-14T04:42:58;98360.66;;;-0.38;100.00
58239;BME280;44037;55.638;37.356;2023-03-14T04:45:25;98366.75;;;-0.33;100.00
58239;BME280;44037;55.638;37.356;2023-03-14T04:47:52;98351.69;;;-0.27;100.00
58239;BME280;44037;55.638;37.356;2023-03-14T04:50:19;98343.41;;;-0.20;100.00
58239;BME280;44037;55.638;37.356;2023-03-14T04:52:46;98349.59;;;-0.11;100.00
58239;BME280;44037;55.638;37.356;2023-03-14T04:55:13;98336.34;;;-0.01;100.00
58239;BME280;44037;55.638;37.356;2023-03-14T04:57:40;98321.16;;;0.02;100.00
58239;BME280;44037;55.638;37.356;2023-03-14T05:00:11;98331.63;;;0.11;100.00
58239;BME280;44037;55.638;37.356;2023-03-14T05:02:38;98328.47;;;0.20;100.00
58239;BME280;44037;55.638;37.356;2023-03-14T05:05:06;98330.44;;;0.29;100.00
58239;BME280;44037;55.638;37.356;2023-03-14T05:07:33;98308.50;;;0.34;100.00
58239;BME280;44037;55.638;37.356;2023-03-14T05:10:00;98294.25;;;0.41;100.00
58239;BME280;44037;55.638;37.356;2023-03-14T05:12:28;98306.41;;;0.50;100.00
58239;BME280;44037;55.638;37.356;2023-03-14T05:14:55;98303.06;;;0.52;100.00
58239;BME280;44037;55.638;37.356;2023-03-14T05:17:24;98303.84;;;0.50;100.00
58239;BME280;44037;55.638;37.356;2023-03-14T05:19:51;98286.88;;;0.52;100.00
58239;BME280;44037;55.638;37.356;2023-03-14T05:22:18;98293.84;;;0.57;100.00
58239;BME280;44037;55.638;37.356;2023-03-14T05:24:46;98306.84;;;0.67;100.00
58239;BME280;44037;55.638;37.356;2023-03-14T05:27:13;98297.63;;;0.72;100.00
58239;BME280;44037;55.638;37.356;2023-03-14T05:29:40;98298.41;;;0.69;100.00
58239;BME280;44037;55.638;37.356;2023-03-14T05:32:07;98285.75;;;0.72;100.00
58239;BME280;44037;55.638;37.356;2023-03-14T05:34:36;98289.38;;;0.81;100.00
58239;BME280;44037;55.638;37.356;2023-03-14T05:37:03;98315.78;;;0.83;100.00
58239;BME280;44037;55.638;37.356;2023-03-14T05:39:30;98309.06;;;0.86;100.00
58239;BME280;44037;55.638;37.356;2023-03-14T05:41:57;98310.09;;;0.93;100.00
58239;BME280;44037;55.638;37.356;2023-03-14T05:44:24;98307.00;;;1.05;100.00
58239;BME280;44037;55.638;37.356;2023-03-14T05:46:51;98321.44;;;1.04;100.00
58239;BME280;44037;55.638;37.356;2023-03-14T05:49:18;98334.19;;;1.04;100.00
58239;BME280;44037;55.638;37.356;2023-03-14T05:51:46;98328.16;;;1.01;100.00
58239;BME280;44037;55.638;37.356;2023-03-14T05:54:14;98314.59;;;1.03;100.00
58239;BME280;44037;55.638;37.356;2023-03-14T05:56:41;98312.25;;;1.11;100.00
58239;BME280;44037;55.638;37.356;2023-03-14T05:59:08;98343.91;;;1.18;100.00
58239;BME280;44037;55.638;37.356;2023-03-14T06:01:35;98332.16;;;1.25;100.00
58239;BME280;44037;55.638;37.356;2023-03-14T06:04:02;98327.22;;;1.31;100.00
58239;BME280;44037;55.638;37.356;2023-03-14T06:06:29;98335.00;;;1.35;100.00
58239;BME280;44037;55.638;37.356;2023-03-14T06:08:58;98318.97;;;1.41;100.00
58239;BME280;44037;55.638;37.356;2023-03-14T06:11:25;98324.28;;;1.50;100.00
58239;BME280;44037;55.638;37.356;2023-03-14T06:13:52;98330.69;;;1.69;100.00
58239;BME280;44037;55.638;37.356;2023-03-14T06:16:19;98321.78;;;1.90;100.00
58239;BME280;44037;55.638;37.356;2023-03-14T06:18:46;98317.75;;;1.98;100.00
58239;BME280;44037;55.638;37.356;2023-03-14T06:21:14;98321.13;;;1.97;100.00
58239;BME280;44037;55.638;37.356;2023-03-14T06:23:41;98320.25;;;1.97;100.00
58239;BME280;44037;55.638;37.356;2023-03-14T06:26:10;98321.03;;;1.93;100.00
58239;BME280;44037;55.638;37.356;2023-03-14T06:28:37;98314.97;;;1.89;100.00
58239;BME280;44037;55.638;37.356;2023-03-14T06:31:05;98312.38;;;1.88;100.00
58239;BME280;44037;55.638;37.356;2023-03-14T06:33:32;98320.84;;;1.85;100.00
58239;BME280;44037;55.638;37.356;2023-03-14T06:35:59;98318.28;;;1.85;100.00
58239;BME280;44037;55.638;37.356;2023-03-14T06:38:27;98310.56;;;1.83;100.00
58239;BME280;44037;55.638;37.356;2023-03-14T06:40:54;98319.97;;;1.84;100.00
58239;BME280;44037;55.638;37.356;2023-03-14T06:43:22;98325.94;;;1.85;100.00
58239;BME280;44037;55.638;37.356;2023-03-14T06:45:49;98315.75;;;1.87;100.00
58239;BME280;44037;55.638;37.356;2023-03-14T06:48:16;98319.25;;;1.90;100.00
58239;BME280;44037;55.638;37.356;2023-03-14T06:50:44;98310.81;;;1.94;100.00
58239;BME280;44037;55.638;37.356;2023-03-14T06:53:11;98312.00;;;2.09;100.00
58239;BME280;44037;55.638;37.356;2023-03-14T06:55:38;98325.13;;;2.24;100.00
58239;BME280;44037;55.638;37.356;2023-03-14T06:58:05;98316.91;;;2.41;100.00
58239;BME280;44037;55.638;37.356;2023-03-14T07:00:35;98300.22;;;2.58;100.00
58239;BME280;44037;55.638;37.356;2023-03-14T07:03:02;98321.75;;;2.68;100.00
58239;BME280;44037;55.638;37.356;2023-03-14T07:05:29;98319.28;;;2.74;100.00
58239;BME280;44037;55.638;37.356;2023-03-14T07:07:56;98322.81;;;2.81;100.00
58239;BME280;44037;55.638;37.356;2023-03-14T07:10:23;98316.06;;;2.83;100.00
58239;BME280;44037;55.638;37.356;2023-03-14T07:12:51;98319.53;;;2.87;100.00
58239;BME280;44037;55.638;37.356;2023-03-14T07:15:19;98309.28;;;2.85;100.00
58239;BME280;44037;55.638;37.356;2023-03-14T07:17:47;98313.47;;;2.82;100.00
58239;BME280;44037;55.638;37.356;2023-03-14T07:20:15;98318.84;;;2.97;100.00
58239;BME280;44037;55.638;37.356;2023-03-14T07:22:42;98320.03;;;3.15;100.00
58239;BME280;44037;55.638;37.356;2023-03-14T07:25:09;98320.22;;;3.26;100.00
58239;BME280;44037;55.638;37.356;2023-03-14T07:27:38;98313.38;;;3.25;100.00
58239;BME280;44037;55.638;37.356;2023-03-14T07:30:06;98318.53;;;3.28;100.00
58239;BME280;44037;55.638;37.356;2023-03-14T07:32:33;98317.00;;;3.36;100.00
58239;BME280;44037;55.638;37.356;2023-03-14T07:35:02;98322.09;;;3.36;100.00
58239;BME280;44037;55.638;37.356;2023-03-14T07:37:29;98320.25;;;3.29;100.00
58239;BME280;44037;55.638;37.356;2023-03-14T07:39:57;98322.72;;;3.21;100.00
58239;BME280;44037;55.638;37.356;2023-03-14T07:42:24;98326.97;;;3.20;100.00
58239;BME280;44037;55.638;37.356;2023-03-14T07:44:51;98325.28;;;3.22;100.00
58239;BME280;44037;55.638;37.356;2023-03-14T07:47:18;98331.34;;;3.28;100.00
58239;BME280;44037;55.638;37.356;2023-03-14T07:49:45;98331.41;;;3.31;100.00
58239;BME280;44037;55.638;37.356;2023-03-14T07:52:13;98339.25;;;3.40;100.00
58239;BME280;44037;55.638;37.356;2023-03-14T07:54:40;98318.09;;;3.50;100.00
58239;BME280;44037;55.638;37.356;2023-03-14T07:57:07;98318.28;;;3.64;100.00
58239;BME280;44037;55.638;37.356;2023-03-14T07:59:34;98311.69;;;3.79;100.00
58239;BME280;44037;55.638;37.356;2023-03-14T08:02:01;98320.44;;;3.93;100.00
58239;BME280;44037;55.638;37.356;2023-03-14T08:04:31;98338.31;;;3.89;100.00
58239;BME280;44037;55.638;37.356;2023-03-14T08:06:58;98341.66;;;3.84;100.00
58239;BME280;44037;55.638;37.356;2023-03-14T08:09:26;98341.66;;;3.86;100.00
58239;BME280;44037;55.638;37.356;2023-03-14T08:11:53;98341.72;;;3.88;100.00
58239;BME280;44037;55.638;37.356;2023-03-14T08:14:20;98340.91;;;3.92;100.00
58239;BME280;44037;55.638;37.356;2023-03-14T08:16:49;98332.38;;;3.93;100.00
58239;BME280;44037;55.638;37.356;2023-03-14T08:19:16;98334.09;;;3.94;100.00
58239;BME280;44037;55.638;37.356;2023-03-14T08:21:43;98331.59;;;3.97;100.00
58239;BME280;44037;55.638;37.356;2023-03-14T08:24:10;98345.25;;;3.96;100.00
58239;BME280;44037;55.638;37.356;2023-03-14T08:26:39;98335.75;;;3.90;100.00
58239;BME280;44037;55.638;37.356;2023-03-14T08:29:06;98334.88;;;3.87;100.00
58239;BME280;44037;55.638;37.356;2023-03-14T08:31:34;98332.31;;;3.88;100.00
58239;BME280;44037;55.638;37.356;2023-03-14T08:34:01;98333.13;;;3.86;100.00
58239;BME280;44037;55.638;37.356;2023-03-14T08:36:29;98331.47;;;3.89;100.00
58239;BME280;44037;55.638;37.356;2023-03-14T08:38:56;98336.59;;;3.88;100.00
58239;BME280;44037;55.638;37.356;2023-03-14T08:41:23;98334.91;;;3.90;100.00
58239;BME280;44037;55.638;37.356;2023-03-14T08:43:52;98332.44;;;3.97;100.00
58239;BME280;44037;55.638;37.356;2023-03-14T08:46:19;98328.38;;;4.09;100.00
58239;BME280;44037;55.638;37.356;2023-03-14T08:48:47;98331.91;;;4.19;100.00
58239;BME280;44037;55.638;37.356;2023-03-14T08:51:14;98333.81;;;4.34;100.00
58239;BME280;44037;55.638;37.356;2023-03-14T08:53:43;98335.72;;;4.49;100.00
58239;BME280;44037;55.638;37.356;2023-03-14T08:56:10;98332.34;;;4.53;100.00
58239;BME280;44037;55.638;37.356;2023-03-14T08:58:37;98323.78;;;4.51;100.00
58239;BME280;44037;55.638;37.356;2023-03-14T09:01:08;98330.59;;;4.50;100.00
58239;BME280;44037;55.638;37.356;2023-03-14T09:03:36;98336.66;;;4.55;100.00
58239;BME280;44037;55.638;37.356;2023-03-14T09:06:04;98327.38;;;4.65;100.00
58239;BME280;44037;55.638;37.356;2023-03-14T09:08:31;98325.78;;;4.76;100.00
58239;BME280;44037;55.638;37.356;2023-03-14T09:10:59;98319.84;;;4.81;100.00
58239;BME280;44037;55.638;37.356;2023-03-14T09:13:26;98310.44;;;4.83;100.00
58239;BME280;44037;55.638;37.356;2023-03-14T09:15:53;98325.03;;;4.87;100.00
58239;BME280;44037;55.638;37.356;2023-03-14T09:18:22;98319.03;;;4.85;100.00
58239;BME280;44037;55.638;37.356;2023-03-14T09:20:49;98319.88;;;4.82;100.00
58239;BME280;44037;55.638;37.356;2023-03-14T09:23:16;98335.25;;;4.82;100.00
58239;BME280;44037;55.638;37.356;2023-03-14T09:25:43;98336.06;;;4.78;100.00
58239;BME280;44037;55.638;37.356;2023-03-14T09:28:10;98342.06;;;4.79;100.00
58239;BME280;44037;55.638;37.356;2023-03-14T09:30:37;98333.59;;;4.86;100.00
58239;BME280;44037;55.638;37.356;2023-03-14T09:33:04;98337.97;;;4.96;100.00
58239;BME280;44037;55.638;37.356;2023-03-14T09:35:34;98335.50;;;5.02;100.00
58239;BME280;44037;55.638;37.356;2023-03-14T09:38:01;98332.13;;;5.10;100.00
58239;BME280;44037;55.638;37.356;2023-03-14T09:40:32;98337.25;;;5.11;100.00
58239;BME280;44037;55.638;37.356;2023-03-14T09:43:00;98340.66;;;5.07;100.00
58239;BME280;44037;55.638;37.356;2023-03-14T09:45:30;98337.25;;;5.10;100.00
58239;BME280;44037;55.638;37.356;2023-03-14T09:47:59;98342.47;;;5.16;100.00
58239;BME280;44037;55.638;37.356;2023-03-14T09:50:30;98329.63;;;5.16;100.00
58239;BME280;44037;55.638;37.356;2023-03-14T09:53:04;98338.19;;;5.16;100.00
58239;BME280;44037;55.638;37.356;2023-03-14T09:55:31;98330.56;;;5.24;100.00
58239;BME280;44037;55.638;37.356;2023-03-14T09:58:03;98335.78;;;5.32;100.00
58239;BME280;44037;55.638;37.356;2023-03-14T10:00:31;98334.13;;;5.40;100.00
58239;BME280;44037;55.638;37.356;2023-03-14T10:03:14;98345.31;;;5.47;100.00
58239;BME280;44037;55.638;37.356;2023-03-14T10:05:45;98337.75;;;5.62;100.00
58239;BME280;44037;55.638;37.356;2023-03-14T10:08:14;98330.91;;;5.66;100.00
58239;BME280;44037;55.638;37.356;2023-03-14T10:10:41;98314.75;;;5.78;100.00
58239;BME280;44037;55.638;37.356;2023-03-14T10:13:14;98311.44;;;5.97;100.00
58239;BME280;44037;55.638;37.356;2023-03-14T10:15:47;98298.69;;;6.11;100.00
58239;BME280;44037;55.638;37.356;2023-03-14T10:18:15;98297.06;;;6.23;100.00
58239;BME280;44037;55.638;37.356;2023-03-14T10:20:44;98300.53;;;6.29;100.00
58239;BME280;44037;55.638;37.356;2023-03-14T10:23:27;98290.25;;;6.34;100.00
58239;BME280;44037;55.638;37.356;2023-03-14T10:26:11;98291.97;;;6.35;100.00
58239;BME280;44037;55.638;37.356;2023-03-14T10:28:40;98290.22;;;6.33;100.00
58239;BME280;44037;55.638;37.356;2023-03-14T10:31:09;98300.50;;;6.26;100.00
58239;BME280;44037;55.638;37.356;2023-03-14T10:33:38;98305.63;;;6.28;100.00
58239;BME280;44037;55.638;37.356;2023-03-14T10:36:14;98303.94;;;6.28;100.00
58239;BME280;44037;55.638;37.356;2023-03-14T10:38:43;98305.66;;;6.33;100.00
58239;BME280;44037;55.638;37.356;2023-03-14T10:41:18;98306.56;;;6.38;100.00
58239;BME280;44037;55.638;37.356;2023-03-14T10:43:49;98303.16;;;6.47;100.00
58239;BME280;44037;55.638;37.356;2023-03-14T10:46:19;98296.31;;;6.52;100.00
58239;BME280;44037;55.638;37.356;2023-03-14T10:48:47;98291.19;;;6.59;100.00
58239;BME280;44037;55.638;37.356;2023-03-14T10:51:19;98292.09;;;6.71;100.00
58239;BME280;44037;55.638;37.356;2023-03-14T10:53:49;98300.72;;;6.88;100.00
58239;BME280;44037;55.638;37.356;2023-03-14T10:56:19;98291.31;;;7.12;100.00
58239;BME280;44037;55.638;37.356;2023-03-14T10:58:48;98283.63;;;7.37;100.00
58239;BME280;44037;55.638;37.356;2023-03-14T11:01:27;98277.63;;;7.53;100.00
58239;BME280;44037;55.638;37.356;2023-03-14T11:04:01;98287.03;;;7.65;100.00
58239;BME280;44037;55.638;37.356;2023-03-14T11:06:36;98258.66;;;7.82;100.00
58239;BME280;44037;55.638;37.356;2023-03-14T11:09:10;98252.59;;;8.04;100.00
58239;BME280;44037;55.638;37.356;2023-03-14T11:11:43;98258.59;;;8.13;100.00
58239;BME280;44037;55.638;37.356;2023-03-14T11:14:18;98250.00;;;8.07;100.00
58239;BME280;44037;55.638;37.356;2023-03-14T11:16:53;98254.34;;;7.98;100.00
58239;BME280;44037;55.638;37.356;2023-03-14T11:19:35;98257.81;;;7.85;95.36
58239;BME280;44037;55.638;37.356;2023-03-14T11:22:14;98272.41;;;7.91;97.72
58239;BME280;44037;55.638;37.356;2023-03-14T11:25:02;98277.59;;;7.78;95.31
58239;BME280;44037;55.638;37.356;2023-03-14T11:27:41;98282.75;;;7.63;98.22
58239;BME280;44037;55.638;37.356;2023-03-14T11:30:19;98282.75;;;7.57;95.80
58239;BME280;44037;55.638;37.356;2023-03-14T11:32:56;98296.50;;;7.52;96.90
58239;BME280;44037;55.638;37.356;2023-03-14T11:35:28;98283.63;;;7.46;93.66
58239;BME280;44037;55.638;37.356;2023-03-14T11:38:05;98292.19;;;7.33;92.49
58239;BME280;44037;55.638;37.356;2023-03-14T11:40:39;98293.06;;;7.27;87.22
58239;BME280;44037;55.638;37.356;2023-03-14T11:43:12;98299.91;;;7.25;93.16
58239;BME280;44037;55.638;37.356;2023-03-14T11:45:42;98299.03;;;7.14;90.64
58239;BME280;44037;55.638;37.356;2023-03-14T11:48:26;98299.91;;;7.05;92.14
58239;BME280;44037;55.638;37.356;2023-03-14T11:50:57;98302.50;;;7.11;88.59
58239;BME280;44037;55.638;37.356;2023-03-14T11:53:38;98302.47;;;7.06;87.31
58239;BME280;44037;55.638;37.356;2023-03-14T11:56:14;98325.66;;;7.05;88.23
58239;BME280;44037;55.638;37.356;2023-03-14T11:58:54;98323.06;;;7.00;88.38
58239;BME280;44037;55.638;37.356;2023-03-14T12:01:27;98314.47;;;7.01;86.87
58239;BME280;44037;55.638;37.356;2023-03-14T12:04:03;98314.50;;;7.03;85.42
58239;BME280;44037;55.638;37.356;2023-03-14T12:06:38;98311.91;;;7.04;83.21
58239;BME280;44037;55.638;37.356;2023-03-14T12:09:13;98305.06;;;7.02;83.62
58239;BME280;44037;55.638;37.356;2023-03-14T12:11:44;98317.91;;;6.97;83.22
58239;BME280;44037;55.638;37.356;2023-03-14T12:14:22;98318.75;;;6.95;84.00
58239;BME280;44037;55.638;37.356;2023-03-14T12:16:54;98320.50;;;6.93;82.05
58239;BME280;44037;55.638;37.356;2023-03-14T12:22:24;98292.16;;;6.93;81.52
58239;BME280;44037;55.638;37.356;2023-03-14T12:24:56;98313.59;;;6.93;78.07
58239;BME280;44037;55.638;37.356;2023-03-14T12:27:42;98315.31;;;6.91;80.27
58239;BME280;44037;55.638;37.356;2023-03-14T12:30:18;98299.88;;;6.94;78.01
58239;BME280;44037;55.638;37.356;2023-03-14T12:41:52;98324.78;;;7.06;76.88
58239;BME280;44037;55.638;37.356;2023-03-14T12:44:46;98325.66;;;7.05;78.39
58239;BME280;44037;55.638;37.356;2023-03-14T12:47:57;98320.50;;;7.02;79.46
58239;BME280;44037;55.638;37.356;2023-03-14T12:50:35;98323.06;;;7.02;77.64
58239;BME280;44037;55.638;37.356;2023-03-14T12:53:24;98323.06;;;7.03;79.32
58239;BME280;44037;55.638;37.356;2023-03-14T12:55:59;98315.34;;;7.06;76.38
58239;BME280;44037;55.638;37.356;2023-03-14T12:58:32;98305.03;;;7.08;75.98
58239;BME280;44037;55.638;37.356;2023-03-14T13:01:05;98316.22;;;7.10;75.30
58239;BME280;44037;55.638;37.356;2023-03-14T13:03:45;98317.06;;;7.04;74.93
58239;BME280;44037;55.638;37.356;2023-03-14T13:06:47;98312.78;;;6.97;76.84
58239;BME280;44037;55.638;37.356;2023-03-14T13:09:48;98303.28;;;6.90;76.24
58239;BME280;44037;55.638;37.356;2023-03-14T13:12:18;98301.56;;;6.87;74.78